sensor_id;sensor_type;location;lat;lon;timestamp;pressure;altitude;pressure_sealevel;temperature;humidity
22311;BME280;11323;49.610;11.016;2023-03-21T00:01:42;98353.22;;;16.23;66.53
22311;BME280;11323;49.610;11.016;2023-03-21T00:06:42;98358.50;;;16.23;66.53
22311;BME280;11323;49.610;11.016;2023-03-21T00:11:42;98358.88;;;16.19;66.44
22311;BME280;11323;49.610;11.016;2023-03-21T00:16:43;98358.88;;;16.19;66.38
22311;BME280;11323;49.610;11.016;2023-03-21T00:21:45;98357.56;;;16.15;66.33
22311;BME280;11323;49.610;11.016;2023-03-21T00:26:45;98366.44;;;16.14;66.72
22311;BME280;11323;49.610;11.016;2023-03-21T00:31:46;98362.34;;;16.12;66.49
22311;BME280;11323;49.610;11.016;2023-03-21T00:36:46;98360.38;;;16.14;66.42
22311;BME280;11323;49.610;11.016;2023-03-21T00:41:47;98357.09;;;16.12;66.90
22311;BME280;11323;49.610;11.016;2023-03-21T00:46:49;98346.13;;;16.08;66.57
22311;BME280;11323;49.610;11.016;2023-03-21T00:51:49;98339.56;;;16.04;66.86
22311;BME280;11323;49.610;11.016;2023-03-21T00:56:50;98330.69;;;16.05;66.71
22311;BME280;11323;49.610;11.016;2023-03-21T01:01:51;98326.22;;;16.05;66.75
22311;BME280;11323;49.610;11.016;2023-03-21T01:06:53;98330.69;;;16.05;66.86
22311;BME280;11323;49.610;11.016;2023-03-21T01:11:54;98318.88;;;16.01;66.70
22311;BME280;11323;49.610;11.016;2023-03-21T01:16:54;98320.69;;;16.00;66.88
22311;BME280;11323;49.610;11.016;2023-03-21T01:21:55;98318.88;;;16.01;66.68
22311;BME280;11323;49.610;11.016;2023-03-21T01:26:56;98315.59;;;15.99;66.70
22311;BME280;11323;49.610;11.016;2023-03-21T01:31:56;98312.34;;;15.97;66.93
22311;BME280;11323;49.610;11.016;2023-03-21T01:36:57;98305.44;;;15.96;66.90
22311;BME280;11323;49.610;11.016;2023-03-21T01:41:58;98308.72;;;15.98;66.63
22311;BME280;11323;49.610;11.016;2023-03-21T01:47:01;98303.63;;;15.96;66.79
22311;BME280;11323;49.610;11.016;2023-03-21T01:52:21;98295.75;;;15.96;66.92
22311;BME280;11323;49.610;11.016;2023-03-21T01:57:28;98301.53;;;15.92;66.98
22311;BME280;11323;49.610;11.016;2023-03-21T02:02:33;98296.91;;;15.94;67.05
22311;BME280;11323;49.610;11.016;2023-03-21T02:07:55;98294.47;;;15.92;66.81
22311;BME280;11323;49.610;11.016;2023-03-21T02:12:58;98287.94;;;15.88;67.12
22311;BME280;11323;49.610;11.016;2023-03-21T02:18:16;98288.72;;;15.88;66.99
22311;BME280;11323;49.610;11.016;2023-03-21T02:28:56;98289.91;;;15.86;66.92
22311;BME280;11323;49.610;11.016;2023-03-21T02:34:11;98295.16;;;15.86;66.84
22311;BME280;11323;49.610;11.016;2023-03-21T02:39:37;98288.41;;;15.83;66.97
22311;BME280;11323;49.610;11.016;2023-03-21T02:44:47;98281.88;;;15.79;67.35
22311;BME280;11323;49.610;11.016;2023-03-21T02:55:04;98277.47;;;15.71;67.19
22311;BME280;11323;49.610;11.016;2023-03-21T03:00:24;98275.16;;;15.77;67.33
22311;BME280;11323;49.610;11.016;2023-03-21T03:05:28;98285.47;;;15.78;67.29
22311;BME280;11323;49.610;11.016;2023-03-21T03:10:41;98285.66;;;15.77;67.50
22311;BME280;11323;49.610;11.016;2023-03-21T03:15:50;98284.03;;;15.75;67.16
22311;BME280;11323;49.610;11.016;2023-03-21T03:21:04;98283.84;;;15.77;67.31
22311;BME280;11323;49.610;11.016;2023-03-21T03:31:37;98278.31;;;15.72;67.27
22311;BME280;11323;49.610;11.016;2023-03-21T03:36:41;98269.78;;;15.70;67.35
22311;BME280;11323;49.610;11.016;2023-03-21T03:46:57;98268.13;;;15.69;67.33
22311;BME280;11323;49.610;11.016;2023-03-21T03:52:07;98269.78;;;15.70;67.35
22311;BME280;11323;49.610;11.016;2023-03-21T03:57:17;98265.50;;;15.69;67.40
22311;BME280;11323;49.610;11.016;2023-03-21T04:02:19;98266.69;;;15.66;67.36
22311;BME280;11323;49.610;11.016;2023-03-21T04:07:20;98260.25;;;15.69;67.41
22311;BME280;11323;49.610;11.016;2023-03-21T04:12:23;98259.59;;;15.67;67.43
22311;BME280;11323;49.610;11.016;2023-03-21T04:17:42;98264.06;;;15.66;67.41
22311;BME280;11323;49.610;11.016;2023-03-21T04:22:46;98245.19;;;15.63;67.48
22311;BME280;11323;49.610;11.016;2023-03-21T04:27:48;98258.97;;;15.65;67.32
22311;BME280;11323;49.610;11.016;2023-03-21T04:33:27;98249.81;;;15.60;67.52
22311;BME280;11323;49.610;11.016;2023-03-21T04:38:31;98254.72;;;15.64;67.30
22311;BME280;11323;49.610;11.016;2023-03-21T04:43:36;98258.34;;;15.63;67.58
22311;BME280;11323;49.610;11.016;2023-03-21T04:48:36;98257.03;;;15.58;67.55
22311;BME280;11323;49.610;11.016;2023-03-21T04:53:38;98249.81;;;15.60;67.57
22311;BME280;11323;49.610;11.016;2023-03-21T04:58:39;98255.06;;;15.60;67.52
22311;BME280;11323;49.610;11.016;2023-03-21T05:03:40;98255.06;;;15.60;67.50
22311;BME280;11323;49.610;11.016;2023-03-21T05:08:40;98248.16;;;15.59;67.46
22311;BME280;11323;49.610;11.016;2023-03-21T05:13:41;98246.88;;;15.55;67.48
22311;BME280;11323;49.610;11.016;2023-03-21T05:18:42;98250.84;;;15.51;67.66
22311;BME280;11323;49.610;11.016;2023-03-21T05:23:49;98253.75;;;15.56;67.75
22311;BME280;11323;49.610;11.016;2023-03-21T05:28:54;98254.13;;;15.53;67.56
22311;BME280;11323;49.610;11.016;2023-03-21T05:33:55;98255.72;;;15.54;67.74
22311;BME280;11323;49.610;11.016;2023-03-21T05:38:56;98253.09;;;15.54;67.62
22311;BME280;11323;49.610;11.016;2023-03-21T05:43:57;98264.78;;;15.52;67.50
22311;BME280;11323;49.610;11.016;2023-03-21T05:48:57;98267.41;;;15.52;67.51
22311;BME280;11323;49.610;11.016;2023-03-21T05:53:59;98267.75;;;15.49;67.63
22311;BME280;11323;49.610;11.016;2023-03-21T05:58:59;98275.28;;;15.52;67.43
22311;BME280;11323;49.610;11.016;2023-03-21T06:04:00;98266.16;;;15.48;67.84
22311;BME280;11323;49.610;11.016;2023-03-21T06:09:03;98277.13;;;15.51;67.54
22311;BME280;11323;49.610;11.016;2023-03-21T06:14:06;98285.50;;;15.47;67.59
22311;BME280;11323;49.610;11.016;2023-03-21T06:19:07;98282.72;;;15.48;68.05
22311;BME280;11323;49.610;11.016;2023-03-21T06:24:19;98276.66;;;15.48;67.86
22311;BME280;11323;49.610;11.016;2023-03-21T06:29:20;98281.06;;;15.47;67.56
22311;BME280;11323;49.610;11.016;2023-03-21T06:34:23;98284.16;;;15.51;67.79
22311;BME280;11323;49.610;11.016;2023-03-21T06:39:24;98287.16;;;15.48;67.93
22311;BME280;11323;49.610;11.016;2023-03-21T06:44:26;98277.00;;;15.44;67.99
22311;BME280;11323;49.610;11.016;2023-03-21T06:49:34;98285.97;;;15.50;67.96
22311;BME280;11323;49.610;11.016;2023-03-21T06:54:41;98284.34;;;15.49;67.94
22311;BME280;11323;49.610;11.016;2023-03-21T06:59:45;98278.44;;;15.47;67.99
22311;BME280;11323;49.610;11.016;2023-03-21T07:04:53;98284.69;;;15.46;67.87
22311;BME280;11323;49.610;11.016;2023-03-21T07:09:56;98284.88;;;15.44;68.07
22311;BME280;11323;49.610;11.016;2023-03-21T07:14:59;98279.09;;;15.49;68.19
22311;BME280;11323;49.610;11.016;2023-03-21T07:20:00;98283.88;;;15.46;67.99
22311;BME280;11323;49.610;11.016;2023-03-21T07:25:02;98287.16;;;15.48;68.15
22311;BME280;11323;49.610;11.016;2023-03-21T07:30:07;98285.50;;;15.47;68.07
22311;BME280;11323;49.610;11.016;2023-03-21T07:35:13;98293.53;;;15.45;68.33
22311;BME280;11323;49.610;11.016;2023-03-21T07:40:15;98292.91;;;15.43;68.41
22311;BME280;11323;49.610;11.016;2023-03-21T07:45:17;98287.81;;;15.41;68.44
22311;BME280;11323;49.610;11.016;2023-03-21T07:50:22;98289.59;;;15.49;68.62
22311;BME280;11323;49.610;11.016;2023-03-21T07:55:23;98299.91;;;15.59;68.45
22311;BME280;11323;49.610;11.016;2023-03-21T08:00:23;98296.75;;;15.64;68.79
22311;BME280;11323;49.610;11.016;2023-03-21T08:05:35;98289.97;;;15.38;64.30
22311;BME280;11323;49.610;11.016;2023-03-21T08:10:36;98297.66;;;15.08;65.38
22311;BME280;11323;49.610;11.016;2023-03-21T08:15:36;98289.66;;;15.41;66.76
22311;BME280;11323;49.610;11.016;2023-03-21T08:20:38;98284.81;;;15.53;66.77
22311;BME280;11323;49.610;11.016;2023-03-21T08:25:39;98293.94;;;15.65;67.17
22311;BME280;11323;49.610;11.016;2023-03-21T08:30:39;98288.34;;;15.68;67.35
22311;BME280;11323;49.610;11.016;2023-03-21T08:35:40;98284.03;;;15.75;67.35
22311;BME280;11323;49.610;11.016;2023-03-21T08:40:40;98283.03;;;15.77;67.45
22311;BME280;11323;49.610;11.016;2023-03-21T08:45:41;98273.97;;;15.79;67.56
22311;BME280;11323;49.610;11.016;2023-03-21T08:50:42;98267.09;;;15.78;67.54
22311;BME280;11323;49.610;11.016;2023-03-21T08:55:43;98270.38;;;15.80;67.55
22311;BME280;11323;49.610;11.016;2023-03-21T09:00:44;98270.03;;;15.83;67.69
22311;BME280;11323;49.610;11.016;2023-03-21T09:05:44;98265.56;;;15.84;67.68
22311;BME280;11323;49.610;11.016;2023-03-21T09:10:45;98265.75;;;15.82;67.58
22311;BME280;11323;49.610;11.016;2023-03-21T09:15:46;98256.88;;;15.83;67.34
22311;BME280;11323;49.610;11.016;2023-03-21T09:20:47;98261.19;;;15.84;67.70
22311;BME280;11323;49.610;11.016;2023-03-21T09:25:49;98255.94;;;15.84;67.51
22311;BME280;11323;49.610;11.016;2023-03-21T09:30:50;98246.88;;;15.87;67.62
22311;BME280;11323;49.610;11.016;2023-03-21T09:35:51;98241.06;;;15.92;67.39
22311;BME280;11323;49.610;11.016;2023-03-21T09:51:40;98241.06;;;15.92;67.23
22311;BME280;11323;49.610;11.016;2023-03-21T09:56:45;98244.69;;;15.90;67.35
22311;BME280;11323;49.610;11.016;2023-03-21T10:01:47;98226.59;;;15.96;67.16
22311;BME280;11323;49.610;11.016;2023-03-21T10:06:58;98219.38;;;15.98;67.01
22311;BME280;11323;49.610;11.016;2023-03-21T10:12:05;98211.09;;;16.01;67.23
22311;BME280;11323;49.610;11.016;2023-03-21T10:17:21;98218.63;;;16.04;66.84
22311;BME280;11323;49.610;11.016;2023-03-21T10:22:25;98216.34;;;16.01;67.28
22311;BME280;11323;49.610;11.016;2023-03-21T10:27:26;98213.72;;;16.01;67.18
22311;BME280;11323;49.610;11.016;2023-03-21T10:32:26;98206.47;;;16.03;67.11
22311;BME280;11323;49.610;11.016;2023-03-21T10:37:27;98192.69;;;16.01;67.06
22311;BME280;11323;49.610;11.016;2023-03-21T10:42:29;98194.69;;;15.99;66.78
22311;BME280;11323;49.610;11.016;2023-03-21T10:47:33;98181.72;;;15.97;66.74
22311;BME280;11323;49.610;11.016;2023-03-21T10:52:34;98187.81;;;15.98;67.11
22311;BME280;11323;49.610;11.016;2023-03-21T10:57:35;98180.94;;;15.97;66.67
22311;BME280;11323;49.610;11.016;2023-03-21T11:02:37;98174.84;;;15.96;67.06
22311;BME280;11323;49.610;11.016;2023-03-21T11:07:37;98176.81;;;15.94;66.94
22311;BME280;11323;49.610;11.016;2023-03-21T11:12:39;98182.06;;;15.94;66.82
22311;BME280;11323;49.610;11.016;2023-03-21T11:17:40;98173.38;;;15.94;67.56
22311;BME280;11323;49.610;11.016;2023-03-21T11:22:42;98165.16;;;15.97;66.97
22311;BME280;11323;49.610;11.016;2023-03-21T11:27:49;98159.91;;;15.97;67.44
22311;BME280;11323;49.610;11.016;2023-03-21T11:32:54;98152.38;;;15.94;67.39
22311;BME280;11323;49.610;11.016;2023-03-21T11:37:55;98151.38;;;15.95;67.27
22311;BME280;11323;49.610;11.016;2023-03-21T11:48:16;98153.00;;;15.96;67.07
22311;BME280;11323;49.610;11.016;2023-03-21T11:53:45;98135.94;;;15.92;67.07
22311;BME280;11323;49.610;11.016;2023-03-21T12:09:40;98111.66;;;15.89;67.38
22311;BME280;11323;49.610;11.016;2023-03-21T12:20:32;98104.75;;;15.88;67.26
22311;BME280;11323;49.610;11.016;2023-03-21T12:25:47;98097.91;;;15.87;67.32
22311;BME280;11323;49.610;11.016;2023-03-21T12:41:24;98071.63;;;15.87;67.47
22311;BME280;11323;49.610;11.016;2023-03-21T12:51:38;98070.97;;;15.85;67.20
22311;BME280;11323;49.610;11.016;2023-03-21T12:57:00;98057.84;;;15.85;67.67
22311;BME280;11323;49.610;11.016;2023-03-21T13:02:31;98060.59;;;15.84;67.52
22311;BME280;11323;49.610;11.016;2023-03-21T13:07:36;98047.31;;;15.85;67.57
22311;BME280;11323;49.610;11.016;2023-03-21T13:13:04;98038.13;;;15.81;67.81
22311;BME280;11323;49.610;11.016;2023-03-21T13:24:17;98025.47;;;15.85;67.73
22311;BME280;11323;49.610;11.016;2023-03-21T13:29:30;98027.28;;;15.84;67.87
22311;BME280;11323;49.610;11.016;2023-03-21T13:34:31;98014.16;;;15.84;67.78
22311;BME280;11323;49.610;11.016;2023-03-21T13:39:31;98014.16;;;15.84;67.95
22311;BME280;11323;49.610;11.016;2023-03-21T13:44:40;98011.34;;;15.86;67.94
22311;BME280;11323;49.610;11.016;2023-03-21T13:49:42;98012.16;;;15.86;67.77
22311;BME280;11323;49.610;11.016;2023-03-21T13:55:02;98007.59;;;15.80;68.17
22311;BME280;11323;49.610;11.016;2023-03-21T14:00:27;98000.03;;;15.85;68.10
22311;BME280;11323;49.610;11.016;2023-03-21T14:05:32;97994.75;;;15.85;67.97
22311;BME280;11323;49.610;11.016;2023-03-21T14:15:43;97986.50;;;15.88;67.93
22311;BME280;11323;49.610;11.016;2023-03-21T14:20:44;97971.13;;;15.85;68.11
22311;BME280;11323;49.610;11.016;2023-03-21T14:25:45;97974.38;;;15.87;67.79
22311;BME280;11323;49.610;11.016;2023-03-21T14:30:51;97957.97;;;15.85;68.02
22311;BME280;11323;49.610;11.016;2023-03-21T14:35:57;97954.97;;;15.88;67.72
22311;BME280;11323;49.610;11.016;2023-03-21T14:40:59;97953.53;;;15.86;67.96
22311;BME280;11323;49.610;11.016;2023-03-21T14:46:00;97952.16;;;15.90;67.80
22311;BME280;11323;49.610;11.016;2023-03-21T14:51:03;97955.44;;;15.92;67.73
22311;BME280;11323;49.610;11.016;2023-03-21T14:56:23;97954.59;;;15.92;67.94
22311;BME280;11323;49.610;11.016;2023-03-21T15:01:28;97946.72;;;15.92;67.97
22311;BME280;11323;49.610;11.016;2023-03-21T15:06:31;97948.34;;;15.93;67.91
22311;BME280;11323;49.610;11.016;2023-03-21T15:11:36;97947.72;;;15.90;68.01
22311;BME280;11323;49.610;11.016;2023-03-21T15:16:38;97942.66;;;15.89;67.71
22311;BME280;11323;49.610;11.016;2023-03-21T15:21:45;97945.09;;;15.90;67.72
22311;BME280;11323;49.610;11.016;2023-03-21T15:26:48;97936.84;;;15.94;67.64
22311;BME280;11323;49.610;11.016;2023-03-21T15:31:49;97941.91;;;15.95;67.65
22311;BME280;11323;49.610;11.016;2023-03-21T15:37:04;97938.47;;;15.95;67.85
22311;BME280;11323;49.610;11.016;2023-03-21T15:42:22;97934.22;;;15.94;67.61
22311;BME280;11323;49.610;11.016;2023-03-21T15:52:50;97923.50;;;15.95;67.62
22311;BME280;11323;49.610;11.016;2023-03-21T15:57:54;97926.97;;;15.96;67.64
22311;BME280;11323;49.610;11.016;2023-03-21T16:03:04;97939.47;;;15.94;67.65
22311;BME280;11323;49.610;11.016;2023-03-21T16:08:25;97944.72;;;15.94;67.73
22311;BME280;11323;49.610;11.016;2023-03-21T16:13:26;97946.38;;;15.95;67.92
22311;BME280;11323;49.610;11.016;2023-03-21T16:18:26;97942.09;;;15.94;67.82
22311;BME280;11323;49.610;11.016;2023-03-21T16:23:28;97950.00;;;15.94;67.61
22311;BME280;11323;49.610;11.016;2023-03-21T16:28:29;97955.59;;;15.90;67.81
22311;BME280;11323;49.610;11.016;2023-03-21T16:33:29;97961.50;;;15.93;67.72
22311;BME280;11323;49.610;11.016;2023-03-21T16:38:30;97956.88;;;15.95;67.82
22311;BME280;11323;49.610;11.016;2023-03-21T16:43:30;97954.59;;;15.92;67.46
22311;BME280;11323;49.610;11.016;2023-03-21T16:48:31;97958.06;;;15.92;67.88
22311;BME280;11323;49.610;11.016;2023-03-21T16:53:32;97971.00;;;15.94;67.70
22311;BME280;11323;49.610;11.016;2023-03-21T16:58:32;97964.91;;;15.93;67.71
22311;BME280;11323;49.610;11.016;2023-03-21T17:03:32;97975.63;;;15.92;67.89
22311;BME280;11323;49.610;11.016;2023-03-21T17:08:33;97978.25;;;15.92;67.65
22311;BME280;11323;49.610;11.016;2023-03-21T17:13:34;97996.00;;;15.89;67.86
22311;BME280;11323;49.610;11.016;2023-03-21T17:18:34;97991.75;;;15.88;67.90
22311;BME280;11323;49.610;11.016;2023-03-21T17:23:34;97996.00;;;15.89;67.64
22311;BME280;11323;49.610;11.016;2023-03-21T17:28:39;97992.59;;;15.89;67.64
22311;BME280;11323;49.610;11.016;2023-03-21T17:33:41;98000.81;;;15.86;67.75
22311;BME280;11323;49.610;11.016;2023-03-21T17:38:43;97997.66;;;15.90;67.98
22311;BME280;11323;49.610;11.016;2023-03-21T17:43:47;98002.91;;;15.90;68.28
22311;BME280;11323;49.610;11.016;2023-03-21T17:48:48;98006.63;;;15.96;68.44
22311;BME280;11323;49.610;11.016;2023-03-21T17:53:49;98003.81;;;15.98;68.18
22311;BME280;11323;49.610;11.016;2023-03-21T17:58:51;98006.72;;;16.03;68.72
22311;BME280;11323;49.610;11.016;2023-03-21T18:03:51;98001.25;;;16.04;68.54
22311;BME280;11323;49.610;11.016;2023-03-21T18:08:55;97986.13;;;16.06;68.62
22311;BME280;11323;49.610;11.016;2023-03-21T18:13:55;97987.59;;;16.09;68.45
22311;BME280;11323;49.610;11.016;2023-03-21T18:18:57;97989.84;;;16.12;68.88
22311;BME280;11323;49.610;11.016;2023-03-21T18:23:57;97990.09;;;16.17;69.32
22311;BME280;11323;49.610;11.016;2023-03-21T18:28:58;97988.47;;;16.16;68.92
22311;BME280;11323;49.610;11.016;2023-03-21T18:33:58;97992.75;;;16.17;68.65
22311;BME280;11323;49.610;11.016;2023-03-21T18:38:58;97990.75;;;16.19;68.84
22311;BME280;11323;49.610;11.016;2023-03-21T18:44:01;97995.63;;;16.23;68.77
22311;BME280;11323;49.610;11.016;2023-03-21T18:49:01;97991.00;;;16.25;68.93
22311;BME280;11323;49.610;11.016;2023-03-21T18:54:01;97998.88;;;16.25;69.09
22311;BME280;11323;49.610;11.016;2023-03-21T18:59:03;98000.50;;;16.26;69.09
22311;BME280;11323;49.610;11.016;2023-03-21T19:04:04;97996.25;;;16.25;68.68
22311;BME280;11323;49.610;11.016;2023-03-21T19:09:04;98001.50;;;16.25;68.46
22311;BME280;11323;49.610;11.016;2023-03-21T19:14:05;97997.63;;;16.20;68.68
22311;BME280;11323;49.610;11.016;2023-03-21T19:19:05;97995.00;;;16.20;68.38
22311;BME280;11323;49.610;11.016;2023-03-21T19:24:06;97992.75;;;16.17;68.27
22311;BME280;11323;49.610;11.016;2023-03-21T19:29:07;97986.22;;;16.13;68.52
22311;BME280;11323;49.610;11.016;2023-03-21T19:34:07;97972.44;;;16.11;68.59
22311;BME280;11323;49.610;11.016;2023-03-21T19:39:08;97974.13;;;16.19;68.34
22311;BME280;11323;49.610;11.016;2023-03-21T19:44:09;97980.66;;;16.23;68.38
22311;BME280;11323;49.610;11.016;2023-03-21T19:49:09;97972.59;;;16.25;68.69
22311;BME280;11323;49.610;11.016;2023-03-21T19:54:10;97981.75;;;16.29;68.59
22311;BME280;11323;49.610;11.016;2023-03-21T19:59:10;98005.41;;;16.29;68.76
22311;BME280;11323;49.610;11.016;2023-03-21T20:04:11;97995.69;;;16.29;68.34
22311;BME280;11323;49.610;11.016;2023-03-21T20:09:11;98000.59;;;16.32;68.64
22311;BME280;11323;49.610;11.016;2023-03-21T20:14:12;97992.91;;;16.31;68.88
22311;BME280;11323;49.610;11.016;2023-03-21T20:19:12;97992.50;;;16.34;68.91
22311;BME280;11323;49.610;11.016;2023-03-21T20:24:15;97987.72;;;16.38;68.77
22311;BME280;11323;49.610;11.016;2023-03-21T20:29:16;97992.16;;;16.37;68.81
22311;BME280;11323;49.610;11.016;2023-03-21T20:34:16;97973.38;;;16.40;68.89
22311;BME280;11323;49.610;11.016;2023-03-21T20:39:17;98002.75;;;16.44;68.70
22311;BME280;11323;49.610;11.016;2023-03-21T20:44:18;98015.69;;;16.45;68.92
22311;BME280;11323;49.610;11.016;2023-03-21T20:49:18;98021.97;;;16.44;69.12
22311;BME280;11323;49.610;11.016;2023-03-21T20:54:21;98029.06;;;16.44;69.44
22311;BME280;11323;49.610;11.016;2023-03-21T20:59:22;98026.88;;;16.47;69.27
22311;BME280;11323;49.610;11.016;2023-03-21T21:04:24;98034.38;;;16.50;69.35
22311;BME280;11323;49.610;11.016;2023-03-21T21:09:25;98027.50;;;16.49;69.33
22311;BME280;11323;49.610;11.016;2023-03-21T21:14:25;98025.50;;;16.51;69.28
22311;BME280;11323;49.610;11.016;2023-03-21T21:19:26;98019.03;;;16.54;69.14
22311;BME280;11323;49.610;11.016;2023-03-21T21:24:26;98009.16;;;16.56;69.09
22311;BME280;11323;49.610;11.016;2023-03-21T21:29:27;98018.69;;;16.57;69.42
22311;BME280;11323;49.610;11.016;2023-03-21T21:34:27;98023.66;;;16.52;69.26
22311;BME280;11323;49.610;11.016;2023-03-21T21:39:27;98015.16;;;16.50;69.11
22311;BME280;11323;49.610;11.016;2023-03-21T21:44:30;98011.06;;;16.47;69.09
22311;BME280;11323;49.610;11.016;2023-03-21T21:49:31;98000.91;;;16.44;68.89
22311;BME280;11323;49.610;11.016;2023-03-21T21:54:31;98015.69;;;16.45;68.98
22311;BME280;11323;49.610;11.016;2023-03-21T21:59:33;98000.31;;;16.42;68.99
22311;BME280;11323;49.610;11.016;2023-03-21T22:04:33;97994.06;;;16.43;69.04
22311;BME280;11323;49.610;11.016;2023-03-21T22:09:34;97987.72;;;16.38;68.69
22311;BME280;11323;49.610;11.016;2023-03-21T22:14:34;97984.91;;;16.39;68.78
22311;BME280;11323;49.610;11.016;2023-03-21T22:19:35;97983.25;;;16.38;68.82
22311;BME280;11323;49.610;11.016;2023-03-21T22:24:35;97972.75;;;16.38;68.49
22311;BME280;11323;49.610;11.016;2023-03-21T22:29:36;97979.19;;;16.35;68.85
22311;BME280;11323;49.610;11.016;2023-03-21T22:34:37;97972.66;;;16.31;68.80
22311;BME280;11323;49.610;11.016;2023-03-21T22:39:37;97963.91;;;16.24;68.50
22311;BME280;11323;49.610;11.016;2023-03-21T22:44:38;97984.38;;;16.29;68.52
22311;BME280;11323;49.610;11.016;2023-03-21T22:49:38;97977.47;;;16.28;68.42
22311;BME280;11323;49.610;11.016;2023-03-21T22:54:41;97982.47;;;16.23;68.86
22311;BME280;11323;49.610;11.016;2023-03-21T22:59:42;97980.47;;;16.25;68.64
22311;BME280;11323;49.610;11.016;2023-03-21T23:04:42;97981.47;;;16.24;68.55
22311;BME280;11323;49.610;11.016;2023-03-21T23:09:43;97983.47;;;16.21;68.34
22311;BME280;11323;49.610;11.016;2023-03-21T23:14:43;97981.88;;;16.20;68.68
22311;BME280;11323;49.610;11.016;2023-03-21T23:19:43;97980.22;;;16.19;68.69
22311;BME280;11323;49.610;11.016;2023-03-21T23:24:44;97982.84;;;16.19;68.75
22311;BME280;11323;49.610;11.016;2023-03-21T23:29:44;97979.59;;;16.17;68.51
22311;BME280;11323;49.610;11.016;2023-03-21T23:34:46;97962.81;;;16.18;68.57
22311;BME280;11323;49.610;11.016;2023-03-21T23:39:46;97972.06;;;16.14;68.28
22311;BME280;11323;49.610;11.016;2023-03-21T23:44:48;97969.25;;;16.16;68.55
22311;BME280;11323;49.610;11.016;2023-03-21T23:49:48;97973.91;;;16.14;68.51
22311;BME280;11323;49.610;11.016;2023-03-21T23:54:49;97975.69;;;16.13;68.25
22311;BME280;11323;49.610;11.016;2023-03-21T23:59:53;97985.41;;;16.13;68.60
